createdAt,value
2023-05-20T00:01:05.598Z,1023.44
2023-05-20T00:03:32.487Z,1023.38
2023-05-20T00:05:59.289Z,1023.33
2023-05-20T00:08:26.233Z,1023.34
2023-05-20T00:10:53.070Z,1023.38
2023-05-20T00:13:21.223Z,1023.40
2023-05-20T00:15:48.170Z,1023.37
2023-05-20T00:18:15.062Z,1023.25
2023-05-20T00:20:41.892Z,1023.30
2023-05-20T00:23:08.671Z,1023.27
2023-05-20T00:25:35.764Z,1023.21
2023-05-20T00:28:02.831Z,1023.08
2023-05-20T00:30:30.991Z,1023.10
2023-05-20T00:32:57.902Z,1023.01
2023-05-20T00:35:24.728Z,1022.96
2023-05-20T00:37:51.525Z,1022.98
2023-05-20T00:40:18.761Z,1022.94
2023-05-20T00:42:45.670Z,1022.95
2023-05-20T00:45:12.428Z,1022.99
2023-05-20T00:47:41.320Z,1022.91
2023-05-20T00:50:09.575Z,1023.01
2023-05-20T00:52:36.940Z,1022.98
2023-05-20T00:55:04.026Z,1023.00
2023-05-20T00:57:31.055Z,1023.01
2023-05-20T00:59:58.056Z,1023.02
2023-05-20T01:02:28.826Z,1022.95
2023-05-20T01:04:57.724Z,1022.90
2023-05-20T01:07:24.792Z,1022.90
2023-05-20T01:09:51.900Z,1022.88
2023-05-20T01:12:23.374Z,1022.80
2023-05-20T01:14:53.258Z,1022.79
2023-05-20T01:17:21.164Z,1022.87
2023-05-20T01:19:49.999Z,1022.87
2023-05-20T01:22:18.559Z,1022.98
2023-05-20T01:24:47.356Z,1022.93
2023-05-20T01:27:14.399Z,1022.79
2023-05-20T01:29:42.870Z,1022.82
2023-05-20T01:32:15.283Z,1022.80
2023-05-20T01:34:43.099Z,1022.82
2023-05-20T01:37:11.373Z,1022.75
2023-05-20T01:39:40.076Z,1022.79
2023-05-20T01:42:08.967Z,1022.78
2023-05-20T01:44:36.131Z,1022.84
2023-05-20T01:47:03.412Z,1022.80
2023-05-20T01:49:30.348Z,1022.77
2023-05-20T01:51:57.744Z,1022.80
2023-05-20T01:54:24.673Z,1022.69
2023-05-20T01:56:51.420Z,1022.84
2023-05-20T01:59:19.656Z,1022.84
2023-05-20T02:01:46.508Z,1022.80
2023-05-20T02:04:13.433Z,1022.82
2023-05-20T02:06:40.220Z,1022.74
2023-05-20T02:09:07.113Z,1022.72
2023-05-20T02:11:33.997Z,1022.70
2023-05-20T02:14:00.819Z,1022.68
2023-05-20T02:16:29.044Z,1022.64
2023-05-20T02:18:55.922Z,1022.63
2023-05-20T02:21:22.988Z,1022.51
2023-05-20T02:23:49.798Z,1022.47
2023-05-20T02:26:16.714Z,1022.46
2023-05-20T02:28:43.638Z,1022.43
2023-05-20T02:31:10.443Z,1022.45
2023-05-20T02:33:38.733Z,1022.35
2023-05-20T02:36:05.925Z,1022.33
2023-05-20T02:38:32.855Z,1022.28
2023-05-20T02:40:59.739Z,1022.27
2023-05-20T02:43:26.587Z,1022.27
2023-05-20T02:45:54.273Z,1022.20
2023-05-20T02:48:21.272Z,1022.29
2023-05-20T02:50:49.538Z,1022.33
2023-05-20T02:53:16.299Z,1022.21
2023-05-20T02:55:43.162Z,1022.26
2023-05-20T02:58:09.929Z,1022.29
2023-05-20T03:00:36.920Z,1022.34
2023-05-20T03:03:03.858Z,1022.33
2023-05-20T03:05:30.752Z,1022.31
2023-05-20T03:07:59.097Z,1022.38
2023-05-20T03:10:25.940Z,1022.38
2023-05-20T03:12:52.716Z,1022.37
2023-05-20T03:15:19.642Z,1022.42
2023-05-20T03:17:46.553Z,1022.33
2023-05-20T03:20:13.794Z,1022.41
2023-05-20T03:22:40.711Z,1022.44
2023-05-20T03:25:09.917Z,1022.41
2023-05-20T03:27:36.829Z,1022.40
2023-05-20T03:30:04.249Z,1022.38
2023-05-20T03:32:31.201Z,1022.26
2023-05-20T03:34:57.977Z,1022.31
2023-05-20T03:37:24.901Z,1022.31
2023-05-20T03:39:53.422Z,1022.44
2023-05-20T03:42:21.602Z,1022.39
2023-05-20T03:44:48.462Z,1022.28
2023-05-20T03:47:15.323Z,1022.41
2023-05-20T03:49:42.096Z,1022.40
2023-05-20T03:52:08.980Z,1022.42
2023-05-20T03:54:35.774Z,1022.43
2023-05-20T03:57:02.604Z,1022.41
2023-05-20T03:59:30.834Z,1022.30
2023-05-20T04:01:57.670Z,1022.37
2023-05-20T04:04:24.564Z,1022.39
2023-05-20T04:06:51.396Z,1022.37
2023-05-20T04:09:18.328Z,1022.50
2023-05-20T04:11:45.143Z,1022.41
2023-05-20T04:14:11.893Z,1022.47
2023-05-20T04:16:40.089Z,1022.37
2023-05-20T04:19:07.180Z,1022.38
2023-05-20T04:21:34.017Z,1022.54
2023-05-20T04:24:00.857Z,1022.44
2023-05-20T04:26:27.784Z,1022.28
2023-05-20T04:28:55.502Z,1022.36
2023-05-20T04:31:22.828Z,1022.37
2023-05-20T04:33:51.752Z,1022.44
2023-05-20T04:36:18.831Z,1022.48
2023-05-20T04:38:45.798Z,1022.47
2023-05-20T04:41:12.691Z,1022.42
2023-05-20T04:43:39.584Z,1022.34
2023-05-20T04:46:06.617Z,1022.32
2023-05-20T04:48:34.250Z,1022.37
2023-05-20T04:51:02.891Z,1022.43
2023-05-20T04:53:30.265Z,1022.39
2023-05-20T04:55:57.440Z,1022.38
2023-05-20T04:58:25.656Z,1022.27
2023-05-20T05:00:53.060Z,1022.33
2023-05-20T05:03:20.099Z,1022.30
2023-05-20T05:05:47.095Z,1022.35
2023-05-20T05:08:15.646Z,1022.30
2023-05-20T05:10:42.407Z,1022.29
2023-05-20T05:13:11.830Z,1022.46
2023-05-20T05:15:38.578Z,1022.45
2023-05-20T05:18:05.360Z,1022.49
2023-05-20T05:20:32.184Z,1022.42
2023-05-20T05:22:59.078Z,1022.48
2023-05-20T05:25:27.286Z,1022.28
2023-05-20T05:27:54.116Z,1022.33
2023-05-20T05:30:21.352Z,1022.34
2023-05-20T05:32:48.928Z,1022.34
2023-05-20T05:35:15.980Z,1022.37
2023-05-20T05:37:44.556Z,1022.34
2023-05-20T05:40:12.255Z,1022.32
2023-05-20T05:42:40.441Z,1022.30
2023-05-20T05:45:08.717Z,1022.25
2023-05-20T05:47:35.522Z,1022.16
2023-05-20T05:50:02.372Z,1022.15
2023-05-20T05:52:29.257Z,1022.15
2023-05-20T05:54:56.077Z,1022.17
2023-05-20T05:57:23.083Z,1022.21
2023-05-20T05:59:51.389Z,1022.14
2023-05-20T06:02:18.212Z,1022.14
2023-05-20T06:04:45.110Z,1022.26
2023-05-20T06:07:11.864Z,1022.19
2023-05-20T06:09:39.422Z,1022.13
2023-05-20T06:12:06.532Z,1022.13
2023-05-20T06:14:33.381Z,1022.09
2023-05-20T06:17:01.756Z,1022.17
2023-05-20T06:19:28.712Z,1022.09
2023-05-20T06:21:56.720Z,1022.14
2023-05-20T06:24:24.452Z,1021.99
2023-05-20T06:26:51.556Z,1022.00
2023-05-20T06:29:18.667Z,1021.88
2023-05-20T06:31:45.423Z,1021.90
2023-05-20T06:34:13.544Z,1021.86
2023-05-20T06:36:40.384Z,1021.80
2023-05-20T06:39:07.247Z,1021.99
2023-05-20T06:41:34.038Z,1021.94
2023-05-20T06:44:00.797Z,1021.83
2023-05-20T06:46:27.686Z,1021.87
2023-05-20T06:48:54.644Z,1021.84
2023-05-20T06:51:22.836Z,1022.03
2023-05-20T06:53:49.726Z,1021.97
2023-05-20T06:56:16.554Z,1022.02
2023-05-20T06:58:43.422Z,1022.07
2023-05-20T07:01:10.196Z,1022.02
2023-05-20T07:03:37.044Z,1021.81
2023-05-20T07:06:06.212Z,1021.96
2023-05-20T07:08:39.056Z,1021.78
2023-05-20T07:11:06.021Z,1021.87
2023-05-20T07:13:32.955Z,1021.66
2023-05-20T07:15:59.854Z,1021.65
2023-05-20T07:18:26.902Z,1021.71
2023-05-20T07:20:53.826Z,1021.52
2023-05-20T07:23:20.708Z,1021.53
2023-05-20T07:25:48.860Z,1021.58
2023-05-20T07:28:16.320Z,1021.63
2023-05-20T07:30:43.413Z,1021.57
2023-05-20T07:33:10.257Z,1021.51
2023-05-20T07:35:37.206Z,1021.50
2023-05-20T07:38:04.138Z,1021.60
2023-05-20T07:40:31.022Z,1021.49
2023-05-20T07:42:59.210Z,1021.45
2023-05-20T07:45:25.990Z,1021.59
2023-05-20T07:47:52.865Z,1021.53
2023-05-20T07:50:19.710Z,1021.35
2023-05-20T07:52:56.055Z,1021.50
2023-05-20T07:55:23.803Z,1021.41
2023-05-20T07:57:50.645Z,1021.43
2023-05-20T08:00:19.556Z,1021.37
2023-05-20T08:02:46.565Z,1021.25
2023-05-20T08:05:13.814Z,1021.25
2023-05-20T08:07:41.788Z,1021.18
2023-05-20T08:10:09.753Z,1021.18
2023-05-20T08:12:36.607Z,1021.18
2023-05-20T08:15:03.774Z,1020.99
2023-05-20T08:17:33.554Z,1020.99
2023-05-20T08:20:00.753Z,1021.16
2023-05-20T08:22:27.586Z,1020.97
2023-05-20T08:24:54.425Z,1020.97
2023-05-20T08:27:21.223Z,1020.90
2023-05-20T08:29:49.325Z,1020.96
2023-05-20T08:32:16.244Z,1020.87
2023-05-20T08:34:44.525Z,1020.94
2023-05-20T08:37:11.537Z,1020.96
2023-05-20T08:39:38.390Z,1020.96
2023-05-20T08:42:05.566Z,1020.89
2023-05-20T08:44:32.955Z,1020.97
2023-05-20T08:47:00.441Z,1021.05
2023-05-20T08:49:27.326Z,1021.05
2023-05-20T08:51:56.087Z,1021.09
2023-05-20T08:54:24.043Z,1021.12
2023-05-20T08:56:50.951Z,1021.04
2023-05-20T08:59:18.577Z,1021.17
2023-05-20T09:01:45.926Z,1021.16
2023-05-20T09:04:12.785Z,1021.16
2023-05-20T09:06:43.460Z,1021.02
2023-05-20T09:09:12.438Z,1020.78
2023-05-20T09:11:39.987Z,1020.60
2023-05-20T09:14:07.057Z,1020.62
2023-05-20T09:16:34.200Z,1020.49
2023-05-20T09:19:01.282Z,1020.47
2023-05-20T09:21:28.588Z,1020.34
2023-05-20T09:23:55.968Z,1020.03
2023-05-20T09:26:24.109Z,1019.90
2023-05-20T09:28:51.824Z,1019.76
2023-05-20T09:31:19.063Z,1019.58
2023-05-20T09:33:46.083Z,1019.52
2023-05-20T09:36:16.425Z,1019.26
2023-05-20T09:38:45.274Z,1019.56
2023-05-20T09:41:13.812Z,1019.32
2023-05-20T09:43:42.690Z,1019.33
2023-05-20T09:46:10.370Z,1019.23
2023-05-20T09:48:38.388Z,1019.32
2023-05-20T09:51:06.300Z,1019.35
2023-05-20T09:53:33.753Z,1019.37
2023-05-20T09:56:01.243Z,1019.43
2023-05-20T09:58:30.137Z,1019.33
2023-05-20T10:00:59.262Z,1019.48
2023-05-20T10:03:26.478Z,1019.49
2023-05-20T10:06:06.238Z,1019.47
2023-05-20T10:08:48.103Z,1019.41
2023-05-20T10:11:24.506Z,1019.25
2023-05-20T10:14:08.519Z,1019.34
2023-05-20T10:16:44.594Z,1019.42
2023-05-20T10:19:27.593Z,1019.29
2023-05-20T10:22:00.609Z,1019.28
2023-05-20T10:24:31.335Z,1019.34
2023-05-20T10:26:59.223Z,1019.40
2023-05-20T10:29:26.667Z,1019.08
2023-05-20T10:31:56.028Z,1019.14
2023-05-20T10:34:23.768Z,1018.99
2023-05-20T10:37:00.400Z,1018.87
2023-05-20T10:39:28.730Z,1018.62
2023-05-20T10:42:06.415Z,1018.50
2023-05-20T10:44:41.302Z,1018.40
2023-05-20T10:47:24.727Z,1018.27
2023-05-20T10:49:53.075Z,1018.16
2023-05-20T10:52:20.258Z,1018.18
2023-05-20T10:54:51.525Z,1018.14
2023-05-20T10:57:18.773Z,1018.09
2023-05-20T10:59:45.652Z,1018.02
2023-05-20T11:02:16.741Z,1018.19
2023-05-20T11:04:44.240Z,1018.18
2023-05-20T11:07:11.261Z,1018.19
2023-05-20T11:09:38.763Z,1018.21
2023-05-20T11:12:06.694Z,1018.04
2023-05-20T11:14:35.167Z,1017.79
2023-05-20T11:17:02.099Z,1017.55
2023-05-20T11:19:30.563Z,1017.31
2023-05-20T11:21:57.495Z,1017.12
2023-05-20T11:24:25.681Z,1017.16
2023-05-20T11:26:52.735Z,1017.21
2023-05-20T11:29:20.041Z,1017.25
2023-05-20T11:31:48.612Z,1017.38
2023-05-20T11:34:15.583Z,1017.52
2023-05-20T11:36:44.632Z,1017.73
2023-05-20T11:39:12.485Z,1017.73
2023-05-20T11:41:39.579Z,1017.89
2023-05-20T11:44:10.420Z,1018.03
2023-05-20T11:46:42.448Z,1017.89
2023-05-20T11:49:10.135Z,1018.04
2023-05-20T11:51:39.072Z,1017.84
2023-05-20T11:54:08.949Z,1017.91
2023-05-20T11:56:37.037Z,1017.88
2023-05-20T11:59:04.961Z,1018.01
2023-05-20T12:01:32.981Z,1018.02
2023-05-20T12:04:00.153Z,1018.07
2023-05-20T12:06:27.992Z,1018.13
2023-05-20T12:08:54.826Z,1018.06
2023-05-20T12:11:23.084Z,1017.96
2023-05-20T12:13:50.102Z,1017.94
2023-05-20T12:16:17.081Z,1017.76
2023-05-20T12:18:44.002Z,1017.62
2023-05-20T12:21:10.828Z,1017.70
2023-05-20T12:23:37.680Z,1017.54
2023-05-20T12:26:06.011Z,1017.36
2023-05-20T12:28:34.231Z,1017.30
2023-05-20T12:31:01.160Z,1017.22
2023-05-20T12:33:28.224Z,1017.27
2023-05-20T12:35:55.368Z,1017.17
2023-05-20T12:38:22.183Z,1017.41
2023-05-20T12:40:49.103Z,1017.28
2023-05-20T12:43:15.916Z,1017.34
2023-05-20T12:45:47.200Z,1017.20
2023-05-20T12:48:14.064Z,1017.22
2023-05-20T12:50:41.383Z,1017.39
2023-05-20T12:53:08.777Z,1017.44
2023-05-20T12:55:36.019Z,1017.55
2023-05-20T12:58:02.843Z,1017.45
2023-05-20T13:00:30.433Z,1017.28
2023-05-20T13:02:58.837Z,1017.38
2023-05-20T13:05:25.928Z,1017.16
2023-05-20T13:07:52.850Z,1017.06
2023-05-20T13:10:20.276Z,1016.92
2023-05-20T13:12:47.254Z,1016.84
2023-05-20T13:15:17.552Z,1016.78
2023-05-20T13:17:45.197Z,1016.85
2023-05-20T13:20:16.366Z,1016.88
2023-05-20T13:22:44.989Z,1016.96
2023-05-20T13:25:12.285Z,1017.17
2023-05-20T13:27:39.361Z,1017.29
2023-05-20T13:30:08.027Z,1017.30
2023-05-20T13:32:35.185Z,1017.36
2023-05-20T13:35:02.062Z,1017.57
2023-05-20T13:37:30.220Z,1017.71
2023-05-20T13:39:57.088Z,1017.71
2023-05-20T13:42:23.933Z,1017.67
2023-05-20T13:44:50.829Z,1017.69
2023-05-20T13:47:17.680Z,1017.72
2023-05-20T13:49:44.540Z,1017.70
2023-05-20T13:52:11.620Z,1017.65
2023-05-20T13:54:40.053Z,1017.76
2023-05-20T13:57:07.119Z,1017.64
2023-05-20T13:59:33.972Z,1017.64
2023-05-20T14:02:00.835Z,1017.74
2023-05-20T14:04:27.773Z,1017.75
2023-05-20T14:06:54.766Z,1017.63
2023-05-20T14:09:21.726Z,1017.68
2023-05-20T14:11:50.002Z,1017.72
2023-05-20T14:14:16.735Z,1017.68
2023-05-20T14:16:43.523Z,1017.71
2023-05-20T14:19:11.593Z,1017.69
2023-05-20T14:21:38.595Z,1017.66
2023-05-20T14:24:06.110Z,1017.57
2023-05-20T14:26:33.515Z,1017.44
2023-05-20T14:29:01.958Z,1017.42
2023-05-20T14:31:31.106Z,1017.37
2023-05-20T14:33:58.156Z,1017.42
2023-05-20T14:36:25.069Z,1017.43
2023-05-20T14:38:51.893Z,1017.52
2023-05-20T14:41:18.737Z,1017.43
2023-05-20T14:43:45.527Z,1017.54
2023-05-20T14:46:14.162Z,1017.56
2023-05-20T14:48:42.077Z,1017.65
2023-05-20T14:51:09.260Z,1017.72
2023-05-20T14:53:36.242Z,1017.69
2023-05-20T14:56:03.174Z,1017.72
2023-05-20T14:58:30.297Z,1017.67
2023-05-20T15:00:58.806Z,1017.68
2023-05-20T15:03:27.055Z,1017.60
2023-05-20T15:05:53.944Z,1017.96
2023-05-20T15:08:20.767Z,1017.91
2023-05-20T15:10:47.807Z,1017.78
2023-05-20T15:13:14.659Z,1017.82
2023-05-20T15:15:41.536Z,1017.77
2023-05-20T15:18:08.766Z,1017.68
2023-05-20T15:20:37.126Z,1017.61
2023-05-20T15:23:03.925Z,1017.82
2023-05-20T15:25:31.018Z,1017.72
2023-05-20T15:27:59.244Z,1017.82
2023-05-20T15:30:31.052Z,1017.86
2023-05-20T15:32:57.910Z,1017.79
2023-05-20T15:35:25.199Z,1017.78
2023-05-20T15:37:55.443Z,1017.88
2023-05-20T15:40:22.429Z,1017.78
2023-05-20T15:42:49.654Z,1017.83
2023-05-20T15:45:18.261Z,1017.79
2023-05-20T15:47:45.357Z,1017.73
2023-05-20T15:50:13.375Z,1017.75
2023-05-20T15:52:40.220Z,1017.73
2023-05-20T15:55:10.104Z,1017.87
2023-05-20T15:57:36.934Z,1017.85
2023-05-20T16:00:04.624Z,1017.82
2023-05-20T16:02:32.737Z,1017.87
2023-05-20T16:05:00.871Z,1017.86
2023-05-20T16:07:27.909Z,1017.87
2023-05-20T16:09:54.975Z,1017.85
2023-05-20T16:12:24.065Z,1017.90
2023-05-20T16:14:51.072Z,1018.06
2023-05-20T16:17:17.907Z,1018.16
2023-05-20T16:19:45.780Z,1018.32
2023-05-20T16:22:13.332Z,1018.30
2023-05-20T16:24:40.488Z,1018.29
2023-05-20T16:27:07.716Z,1018.42
2023-05-20T16:29:35.878Z,1018.41
2023-05-20T16:32:02.801Z,1018.47
2023-05-20T16:34:29.682Z,1018.47
2023-05-20T16:36:56.992Z,1018.55
2023-05-20T16:39:23.876Z,1018.44
2023-05-20T16:41:50.714Z,1018.47
2023-05-20T16:44:17.668Z,1018.59
2023-05-20T16:46:46.070Z,1018.47
2023-05-20T16:49:13.306Z,1018.47
2023-05-20T16:51:40.126Z,1018.48
2023-05-20T16:54:07.176Z,1018.50
2023-05-20T16:56:35.384Z,1018.52
2023-05-20T16:59:02.497Z,1018.55
2023-05-20T17:01:29.787Z,1018.51
2023-05-20T17:03:58.518Z,1018.59
2023-05-20T17:06:25.397Z,1018.53
2023-05-20T17:08:52.234Z,1018.46
2023-05-20T17:11:19.088Z,1018.58
2023-05-20T17:13:45.985Z,1018.52
2023-05-20T17:16:13.338Z,1018.60
2023-05-20T17:18:40.329Z,1018.54
2023-05-20T17:21:08.705Z,1018.66
2023-05-20T17:23:35.832Z,1018.68
2023-05-20T17:26:03.257Z,1018.75
2023-05-20T17:28:30.135Z,1018.83
2023-05-20T17:30:59.053Z,1018.91
2023-05-20T17:33:26.150Z,1018.82
2023-05-20T17:35:53.150Z,1019.08
2023-05-20T17:38:21.379Z,1018.99
2023-05-20T17:40:48.810Z,1019.18
2023-05-20T17:43:15.598Z,1019.28
2023-05-20T17:45:42.496Z,1019.18
2023-05-20T17:48:11.652Z,1019.15
2023-05-20T17:50:38.756Z,1019.12
2023-05-20T17:53:06.008Z,1019.10
2023-05-20T17:55:34.273Z,1019.15
2023-05-20T17:58:01.149Z,1019.34
2023-05-20T18:00:28.055Z,1019.28
2023-05-20T18:02:55.002Z,1019.23
2023-05-20T18:05:21.792Z,1019.23
2023-05-20T18:07:48.635Z,1019.32
2023-05-20T18:10:15.484Z,1019.51
2023-05-20T18:12:43.641Z,1019.60
2023-05-20T18:15:10.619Z,1019.63
2023-05-20T18:17:39.507Z,1019.75
2023-05-20T18:20:08.334Z,1019.65
2023-05-20T18:22:35.177Z,1019.70
2023-05-20T18:25:02.249Z,1019.63
2023-05-20T18:27:29.028Z,1019.66
2023-05-20T18:29:57.201Z,1019.67
2023-05-20T18:32:24.018Z,1019.68
2023-05-20T18:34:50.816Z,1019.71
2023-05-20T18:37:17.636Z,1019.76
2023-05-20T18:39:44.416Z,1019.72
2023-05-20T18:42:11.306Z,1019.74
2023-05-20T18:44:38.216Z,1019.78
2023-05-20T18:47:06.547Z,1019.87
2023-05-20T18:49:33.359Z,1019.91
2023-05-20T18:52:00.174Z,1019.95
2023-05-20T18:54:27.278Z,1019.92
2023-05-20T18:56:54.495Z,1019.98
2023-05-20T18:59:22.751Z,1020.00
2023-05-20T19:01:50.638Z,1020.16
2023-05-20T19:04:18.846Z,1020.18
2023-05-20T19:06:45.701Z,1020.25
2023-05-20T19:09:12.484Z,1020.30
2023-05-20T19:11:39.316Z,1020.32
2023-05-20T19:14:06.810Z,1020.36
2023-05-20T19:16:33.800Z,1020.45
2023-05-20T19:19:00.742Z,1020.49
2023-05-20T19:21:29.009Z,1020.45
2023-05-20T19:23:55.764Z,1020.40
2023-05-20T19:26:22.587Z,1020.31
2023-05-20T19:28:52.010Z,1020.43
2023-05-20T19:31:19.107Z,1020.52
2023-05-20T19:33:47.051Z,1020.50
2023-05-20T19:36:14.059Z,1020.46
2023-05-20T19:38:42.493Z,1020.61
2023-05-20T19:41:10.214Z,1020.46
2023-05-20T19:43:37.086Z,1020.56
2023-05-20T19:46:04.035Z,1020.58
2023-05-20T19:48:30.880Z,1020.66
2023-05-20T19:50:57.629Z,1020.65
2023-05-20T19:53:24.396Z,1020.51
2023-05-20T19:55:52.635Z,1020.53
2023-05-20T19:58:19.470Z,1020.58
2023-05-20T20:00:46.313Z,1020.65
2023-05-20T20:03:13.252Z,1020.61
2023-05-20T20:05:40.162Z,1020.56
2023-05-20T20:08:07.062Z,1020.49
2023-05-20T20:10:33.890Z,1020.44
2023-05-20T20:13:02.141Z,1020.56
2023-05-20T20:15:28.903Z,1020.55
2023-05-20T20:17:55.888Z,1020.55
2023-05-20T20:20:22.738Z,1020.64
2023-05-20T20:22:49.566Z,1020.61
2023-05-20T20:25:16.554Z,1020.55
2023-05-20T20:27:43.497Z,1020.58
2023-05-20T20:30:13.063Z,1020.58
2023-05-20T20:32:40.294Z,1020.59
2023-05-20T20:35:08.137Z,1020.55
2023-05-20T20:37:35.022Z,1020.60
2023-05-20T20:40:01.897Z,1020.65
2023-05-20T20:42:28.676Z,1020.68
2023-05-20T20:44:55.515Z,1020.65
2023-05-20T20:47:24.049Z,1020.63
2023-05-20T20:49:50.862Z,1020.57
2023-05-20T20:52:17.719Z,1020.56
2023-05-20T20:54:44.480Z,1020.56
2023-05-20T20:57:11.276Z,1020.60
2023-05-20T20:59:38.062Z,1020.56
2023-05-20T21:02:05.277Z,1020.53
2023-05-20T21:04:34.139Z,1020.55
2023-05-20T21:07:01.811Z,1020.56
2023-05-20T21:09:29.049Z,1020.46
2023-05-20T21:11:56.225Z,1020.43
2023-05-20T21:14:23.122Z,1020.45
2023-05-20T21:16:49.944Z,1020.43
2023-05-20T21:19:16.790Z,1020.38
2023-05-20T21:21:44.968Z,1020.38
2023-05-20T21:24:13.889Z,1020.35
2023-05-20T21:26:40.772Z,1020.29
2023-05-20T21:29:07.549Z,1020.42
2023-05-20T21:31:34.461Z,1020.50
2023-05-20T21:34:01.404Z,1020.46
2023-05-20T21:36:28.557Z,1020.65
2023-05-20T21:38:57.059Z,1020.62
2023-05-20T21:41:24.228Z,1020.76
2023-05-20T21:43:51.178Z,1020.65
2023-05-20T21:46:18.104Z,1020.53
2023-05-20T21:48:45.076Z,1020.70
2023-05-20T21:51:12.093Z,1020.53
2023-05-20T21:53:39.165Z,1020.46
2023-05-20T21:56:08.347Z,1020.59
2023-05-20T21:58:35.394Z,1020.62
2023-05-20T22:01:02.236Z,1020.60
2023-05-20T22:03:29.276Z,1020.50
2023-05-20T22:05:56.165Z,1020.41
2023-05-20T22:08:23.112Z,1020.39
2023-05-20T22:10:50.144Z,1020.45
2023-05-20T22:13:18.597Z,1020.36
2023-05-20T22:15:45.405Z,1020.38
2023-05-20T22:18:12.496Z,1020.33
2023-05-20T22:20:39.424Z,1020.31
2023-05-20T22:23:06.227Z,1020.26
2023-05-20T22:25:33.208Z,1020.17
2023-05-20T22:28:00.164Z,1020.09
2023-05-20T22:30:30.799Z,1020.07
2023-05-20T22:32:57.867Z,1019.95
2023-05-20T22:35:24.853Z,1019.96
2023-05-20T22:37:52.465Z,1019.98
2023-05-20T22:40:19.298Z,1019.92
2023-05-20T22:42:46.132Z,1020.00
2023-05-20T22:45:13.352Z,1020.17
2023-05-20T22:47:42.089Z,1020.13
2023-05-20T22:50:09.839Z,1019.97
2023-05-20T22:52:36.764Z,1019.96
2023-05-20T22:55:04.386Z,1019.96
2023-05-20T22:57:31.268Z,1020.09
2023-05-20T22:59:58.306Z,1019.98
2023-05-20T23:02:25.086Z,1019.92
2023-05-20T23:04:53.373Z,1019.95
2023-05-20T23:07:20.660Z,1019.99
2023-05-20T23:09:47.823Z,1019.90
2023-05-20T23:12:16.136Z,1019.88
2023-05-20T23:14:43.046Z,1019.87
2023-05-20T23:17:09.864Z,1019.78
2023-05-20T23:19:36.736Z,1019.77
2023-05-20T23:22:05.037Z,1019.81
2023-05-20T23:24:32.335Z,1019.83
2023-05-20T23:26:59.252Z,1019.93
2023-05-20T23:29:26.073Z,1019.93
2023-05-20T23:31:52.968Z,1019.95
2023-05-20T23:34:19.896Z,1020.03
2023-05-20T23:36:48.199Z,1020.05
2023-05-20T23:39:18.236Z,1020.01
2023-05-20T23:41:45.602Z,1019.96
2023-05-20T23:44:12.784Z,1019.97
2023-05-20T23:46:39.769Z,1019.85
2023-05-20T23:49:07.725Z,1019.91
2023-05-20T23:51:34.684Z,1019.93
2023-05-20T23:54:01.524Z,1019.96
2023-05-20T23:56:29.741Z,1019.88
2023-05-20T23:58:56.571Z,1019.88
